Time,TemperatureF,DewpointF,PressureIn,WindDirection,WindDirectionDegrees,WindSpeedMPH,WindSpeedGustMPH,Humidity,HourlyPrecipIn,Conditions,Clouds,dailyrainin,SoftwareType,DateUTC
2013-05-06 00:00:00,50.5,50.2,29.63,NW,315,1.1,-999.0,99,-99.99,,,0.00,Acu-Link.com,2013-05-06 04:00:00,
2013-05-06 00:15:00,50.5,50.2,29.62,North,0,2.7,-999.0,99,-99.99,,,0.02,Acu-Link.com,2013-05-06 04:15:00,
2013-05-06 00:30:00,50.0,49.7,29.62,South,180,3.7,-999.0,99,-99.99,,,0.04,Acu-Link.com,2013-05-06 04:30:00,
2013-05-06 00:45:00,50.2,49.9,29.64,SSE,157,0.0,-999.0,99,-99.99,,,0.04,Acu-Link.com,2013-05-06 04:45:00,
2013-05-06 01:00:00,49.6,49.3,29.63,SSE,157,0.0,-999.0,99,-99.99,,,0.04,Acu-Link.com,2013-05-06 05:00:00,
2013-05-06 01:15:00,48.9,48.6,29.63,SSE,157,0.0,-999.0,99,-99.99,,,0.04,Acu-Link.com,2013-05-06 05:15:00,
2013-05-06 01:30:00,48.7,48.4,29.63,SSE,157,0.0,-999.0,99,-99.99,,,0.04,Acu-Link.com,2013-05-06 05:30:00,
2013-05-06 01:45:00,48.6,48.3,29.63,SSE,157,0.0,-999.0,99,-99.99,,,0.04,Acu-Link.com,2013-05-06 05:45:00,
2013-05-06 02:00:00,48.2,47.9,29.63,SSE,157,0.0,-999.0,99,-99.99,,,0.04,Acu-Link.com,2013-05-06 06:00:00,
2013-05-06 02:15:00,48.0,47.7,29.64,NW,315,0.0,-999.0,99,-99.99,,,0.04,Acu-Link.com,2013-05-06 06:15:00,
2013-05-06 02:31:00,48.4,48.1,29.64,SW,225,0.0,-999.0,99,-99.99,,,0.04,Acu-Link.com,2013-05-06 06:31:00,
2013-05-06 02:46:00,48.2,47.9,29.64,South,180,0.0,-999.0,99,-99.99,,,0.04,Acu-Link.com,2013-05-06 06:46:00,
2013-05-06 03:01:00,47.7,47.4,29.63,SSE,157,0.0,-999.0,99,-99.99,,,0.04,Acu-Link.com,2013-05-06 07:01:00,
2013-05-06 03:16:00,47.5,47.2,29.63,SSE,157,0.0,-999.0,99,-99.99,,,0.04,Acu-Link.com,2013-05-06 07:16:00,
2013-05-06 03:31:00,47.7,47.4,29.63,SSE,157,0.0,-999.0,99,-99.99,,,0.04,Acu-Link.com,2013-05-06 07:31:00,
2013-05-06 03:46:00,47.7,47.4,29.62,SSE,157,0.0,-999.0,99,-99.99,,,0.04,Acu-Link.com,2013-05-06 07:46:00,
2013-05-06 04:01:00,47.8,47.5,29.62,SSE,157,0.0,-999.0,99,-99.99,,,0.04,Acu-Link.com,2013-05-06 08:01:00,
2013-05-06 04:16:00,47.7,47.4,29.62,SSE,157,0.0,-999.0,99,-99.99,,,0.04,Acu-Link.com,2013-05-06 08:16:00,
2013-05-06 04:31:00,47.1,46.8,29.61,SSE,157,0.0,-999.0,99,-99.99,,,0.04,Acu-Link.com,2013-05-06 08:31:00,
2013-05-06 04:47:00,46.9,46.6,29.61,SSE,157,0.0,-999.0,99,-99.99,,,0.04,Acu-Link.com,2013-05-06 08:47:00,
2013-05-06 05:02:00,46.2,45.9,29.61,SSE,157,0.0,-999.0,99,-99.99,,,0.04,Acu-Link.com,2013-05-06 09:02:00,
2013-05-06 05:17:00,45.5,45.2,29.61,SSE,157,0.0,-999.0,99,-99.99,,,0.04,Acu-Link.com,2013-05-06 09:17:00,
2013-05-06 05:32:00,45.5,45.2,29.62,SSE,157,0.0,-999.0,99,-99.99,,,0.04,Acu-Link.com,2013-05-06 09:32:00,
2013-05-06 05:47:00,45.5,45.2,29.62,WNW,292,0.0,-999.0,99,-99.99,,,0.04,Acu-Link.com,2013-05-06 09:47:00,
2013-05-06 06:02:00,46.0,45.7,29.63,SSE,157,0.0,-999.0,99,-99.99,,,0.04,Acu-Link.com,2013-05-06 10:02:00,
2013-05-06 06:18:00,46.2,45.9,29.64,SSE,157,0.0,-999.0,99,-99.99,,,0.04,Acu-Link.com,2013-05-06 10:18:00,
2013-05-06 06:33:00,46.6,46.3,29.64,SSE,157,0.0,-999.0,99,-99.99,,,0.04,Acu-Link.com,2013-05-06 10:33:00,
2013-05-06 06:48:00,46.9,46.6,29.64,SE,135,0.0,-999.0,99,-99.99,,,0.04,Acu-Link.com,2013-05-06 10:48:00,
2013-05-06 07:03:00,47.1,46.8,29.65,SE,135,0.0,-999.0,99,-99.99,,,0.04,Acu-Link.com,2013-05-06 11:03:00,
2013-05-06 07:18:00,47.5,47.2,29.65,SE,135,0.0,-999.0,99,-99.99,,,0.04,Acu-Link.com,2013-05-06 11:18:00,
2013-05-06 07:33:00,47.5,47.2,29.66,SE,135,0.0,-999.0,99,-99.99,,,0.04,Acu-Link.com,2013-05-06 11:33:00,
2013-05-06 07:48:00,47.7,47.4,29.67,SE,135,0.0,-999.0,99,-99.99,,,0.04,Acu-Link.com,2013-05-06 11:48:00,
2013-05-06 08:03:00,48.4,48.1,29.67,SE,135,0.0,-999.0,99,-99.99,,,0.04,Acu-Link.com,2013-05-06 12:03:00,
2013-05-06 08:18:00,49.1,48.8,29.67,SW,225,0.0,-999.0,99,-99.99,,,0.04,Acu-Link.com,2013-05-06 12:18:00,
2013-05-06 08:33:00,49.3,49.0,29.68,NW,315,0.0,-999.0,99,-99.99,,,0.04,Acu-Link.com,2013-05-06 12:33:00,
2013-05-06 08:49:00,49.6,49.3,29.67,SW,225,0.0,-999.0,99,-99.99,,,0.04,Acu-Link.com,2013-05-06 12:49:00,
2013-05-06 09:04:00,49.8,49.5,29.68,SW,225,0.0,-999.0,99,-99.99,,,0.04,Acu-Link.com,2013-05-06 13:04:00,
2013-05-06 09:19:00,50.5,50.2,29.68,West,270,0.0,-999.0,99,-99.99,,,0.04,Acu-Link.com,2013-05-06 13:19:00,
2013-05-06 09:34:00,51.1,50.8,29.68,NW,315,0.0,-999.0,99,-99.99,,,0.04,Acu-Link.com,2013-05-06 13:34:00,
2013-05-06 09:49:00,52.0,51.7,29.69,SSW,202,0.0,-999.0,99,-99.99,,,0.04,Acu-Link.com,2013-05-06 13:49:00,
2013-05-06 10:04:00,52.7,52.4,29.69,NW,315,0.0,-999.0,99,-99.99,,,0.04,Acu-Link.com,2013-05-06 14:04:00,
2013-05-06 10:19:00,51.8,51.3,29.70,WSW,247,1.7,-999.0,98,-99.99,,,0.04,Acu-Link.com,2013-05-06 14:19:00,
2013-05-06 10:34:00,51.3,51.0,29.70,WSW,247,0.0,-999.0,99,-99.99,,,0.05,Acu-Link.com,2013-05-06 14:34:00,
2013-05-06 10:49:00,52.0,51.7,29.70,SW,225,1.7,-999.0,99,-99.99,,,0.06,Acu-Link.com,2013-05-06 14:49:00,
2013-05-06 11:05:00,52.2,51.9,29.70,WNW,292,2.2,-999.0,99,-99.99,,,0.10,Acu-Link.com,2013-05-06 15:05:00,
2013-05-06 11:20:00,52.7,52.4,29.71,WNW,292,0.0,-999.0,99,-99.99,,,0.12,Acu-Link.com,2013-05-06 15:20:00,
2013-05-06 11:35:00,52.9,52.6,29.71,West,270,0.0,-999.0,99,-99.99,,,0.12,Acu-Link.com,2013-05-06 15:35:00,
2013-05-06 11:50:00,55.4,54.6,29.71,NW,315,2.2,-999.0,97,-99.99,,,0.12,Acu-Link.com,2013-05-06 15:50:00,
2013-05-06 12:05:00,55.0,53.0,29.70,West,270,1.1,-999.0,93,-99.99,,,0.12,Acu-Link.com,2013-05-06 16:05:00,
2013-05-06 12:20:00,54.9,53.5,29.70,South,180,1.1,-999.0,95,-99.99,,,0.12,Acu-Link.com,2013-05-06 16:20:00,
2013-05-06 12:35:00,56.7,53.5,29.70,SSW,202,2.7,-999.0,89,-99.99,,,0.12,Acu-Link.com,2013-05-06 16:35:00,
2013-05-06 12:50:00,55.6,53.3,29.70,SW,225,3.7,-999.0,92,-99.99,,,0.12,Acu-Link.com,2013-05-06 16:50:00,
2013-05-06 13:05:00,55.9,52.1,29.70,West,270,3.2,-999.0,87,-99.99,,,0.12,Acu-Link.com,2013-05-06 17:05:00,
2013-05-06 13:21:00,56.8,50.0,29.69,SW,225,1.7,-999.0,78,-99.99,,,0.12,Acu-Link.com,2013-05-06 17:21:00,
2013-05-06 13:36:00,59.5,53.0,29.69,ESE,112,2.2,-999.0,79,-99.99,,,0.12,Acu-Link.com,2013-05-06 17:36:00,
2013-05-06 13:51:00,59.7,51.8,29.69,South,180,1.1,-999.0,75,-99.99,,,0.12,Acu-Link.com,2013-05-06 17:51:00,
2013-05-06 14:06:00,54.9,53.5,29.70,WNW,292,3.7,-999.0,95,-99.99,,,0.14,Acu-Link.com,2013-05-06 18:06:00,
2013-05-06 14:21:00,56.7,55.3,29.70,WSW,247,0.0,-999.0,95,-99.99,,,0.17,Acu-Link.com,2013-05-06 18:21:00,
2013-05-06 14:36:00,58.5,55.0,29.69,NW,315,1.7,-999.0,88,-99.99,,,0.17,Acu-Link.com,2013-05-06 18:36:00,
2013-05-06 14:51:00,57.4,53.6,29.70,WSW,247,1.7,-999.0,87,-99.99,,,0.17,Acu-Link.com,2013-05-06 18:51:00,
2013-05-06 15:06:00,59.2,54.7,29.69,East,90,1.1,-999.0,85,-99.99,,,0.17,Acu-Link.com,2013-05-06 19:06:00,
2013-05-06 15:21:00,54.5,53.7,29.68,NE,45,0.0,-999.0,97,-99.99,,,0.17,Acu-Link.com,2013-05-06 19:21:00,
2013-05-06 15:37:00,59.0,54.5,29.68,SSE,157,2.2,-999.0,85,-99.99,,,0.18,Acu-Link.com,2013-05-06 19:37:00,
2013-05-06 15:52:00,57.7,54.5,29.68,NW,315,2.7,-999.0,89,-99.99,,,0.18,Acu-Link.com,2013-05-06 19:52:00,
2013-05-06 16:07:00,57.7,54.2,29.67,West,270,2.7,-999.0,88,-99.99,,,0.18,Acu-Link.com,2013-05-06 20:07:00,
2013-05-06 16:22:00,56.8,54.2,29.67,SW,225,1.1,-999.0,91,-99.99,,,0.18,Acu-Link.com,2013-05-06 20:22:00,
2013-05-06 16:37:00,58.5,54.3,29.67,SSE,157,2.2,-999.0,86,-99.99,,,0.18,Acu-Link.com,2013-05-06 20:37:00,
2013-05-06 16:52:00,56.5,53.6,29.67,NNW,337,2.2,-999.0,90,-99.99,,,0.18,Acu-Link.com,2013-05-06 20:52:00,
2013-05-06 17:07:00,55.8,53.8,29.67,SE,135,0.0,-999.0,93,-99.99,,,0.18,Acu-Link.com,2013-05-06 21:07:00,
2013-05-06 17:22:00,56.7,54.1,29.68,SW,225,0.0,-999.0,91,-99.99,,,0.19,Acu-Link.com,2013-05-06 21:22:00,
2013-05-06 17:37:00,56.7,54.1,29.67,West,270,0.0,-999.0,91,-99.99,,,0.19,Acu-Link.com,2013-05-06 21:37:00,
2013-05-06 17:53:00,56.7,54.4,29.68,WNW,292,0.0,-999.0,92,-99.99,,,0.20,Acu-Link.com,2013-05-06 21:53:00,
2013-05-06 18:08:00,56.7,54.7,29.68,South,180,0.0,-999.0,93,-99.99,,,0.20,Acu-Link.com,2013-05-06 22:08:00,
2013-05-06 18:23:00,56.7,55.0,29.68,SSE,157,0.0,-999.0,94,-99.99,,,0.20,Acu-Link.com,2013-05-06 22:23:00,
2013-05-06 18:38:00,56.3,54.9,29.68,West,270,0.0,-999.0,95,-99.99,,,0.20,Acu-Link.com,2013-05-06 22:38:00,
2013-05-06 18:53:00,55.2,54.1,29.68,NNW,337,0.0,-999.0,96,-99.99,,,0.28,Acu-Link.com,2013-05-06 22:53:00,
2013-05-06 19:08:00,54.7,54.1,29.69,West,270,0.0,-999.0,98,-99.99,,,0.28,Acu-Link.com,2013-05-06 23:08:00,
2013-05-06 19:23:00,54.1,53.8,29.69,North,0,0.0,-999.0,99,-99.99,,,0.28,Acu-Link.com,2013-05-06 23:23:00,
2013-05-06 19:38:00,54.1,53.8,29.69,NNW,337,0.0,-999.0,99,-99.99,,,0.28,Acu-Link.com,2013-05-06 23:38:00,
2013-05-06 19:53:00,54.0,53.7,29.69,ESE,112,0.0,-999.0,99,-99.99,,,0.28,Acu-Link.com,2013-05-06 23:53:00,
2013-05-06 20:09:00,53.8,53.5,29.70,SE,135,0.0,-999.0,99,-99.99,,,0.28,Acu-Link.com,2013-05-07 00:09:00,
2013-05-06 20:24:00,53.8,53.5,29.70,SE,135,0.0,-999.0,99,-99.99,,,0.28,Acu-Link.com,2013-05-07 00:24:00,
2013-05-06 20:39:00,53.1,52.8,29.70,SE,135,0.0,-999.0,99,-99.99,,,0.29,Acu-Link.com,2013-05-07 00:39:00,
2013-05-06 20:54:00,52.7,52.4,29.70,East,90,0.0,-999.0,99,-99.99,,,0.29,Acu-Link.com,2013-05-07 00:54:00,
2013-05-06 21:09:00,52.2,51.9,29.70,East,90,0.0,-999.0,99,-99.99,,,0.30,Acu-Link.com,2013-05-07 01:09:00,
2013-05-06 21:24:00,52.2,51.9,29.71,SE,135,0.0,-999.0,99,-99.99,,,0.30,Acu-Link.com,2013-05-07 01:24:00,
2013-05-06 21:39:00,51.8,51.5,29.71,NNW,337,0.0,-999.0,99,-99.99,,,0.31,Acu-Link.com,2013-05-07 01:39:00,
2013-05-06 21:55:00,51.8,51.5,29.72,SSE,157,0.0,-999.0,99,-99.99,,,0.32,Acu-Link.com,2013-05-07 01:55:00,
2013-05-06 22:10:00,51.6,51.3,29.73,SSE,157,0.0,-999.0,99,-99.99,,,0.32,Acu-Link.com,2013-05-07 02:10:00,
2013-05-06 22:25:00,51.4,51.1,29.73,SSE,157,0.0,-999.0,99,-99.99,,,0.32,Acu-Link.com,2013-05-07 02:25:00,
2013-05-06 22:40:00,51.3,51.0,29.73,SSE,157,0.0,-999.0,99,-99.99,,,0.32,Acu-Link.com,2013-05-07 02:40:00,
2013-05-06 22:55:00,50.9,50.6,29.73,SSE,157,0.0,-999.0,99,-99.99,,,0.33,Acu-Link.com,2013-05-07 02:55:00,
2013-05-06 23:10:00,50.5,50.2,29.73,East,90,0.0,-999.0,99,-99.99,,,0.33,Acu-Link.com,2013-05-07 03:10:00,
2013-05-06 23:26:00,50.4,50.1,29.74,SSE,157,0.0,-999.0,99,-99.99,,,0.33,Acu-Link.com,2013-05-07 03:26:00,
2013-05-06 23:41:00,50.4,50.1,29.74,SSE,157,0.0,-999.0,99,-99.99,,,0.33,Acu-Link.com,2013-05-07 03:41:00,
2013-05-06 23:56:00,50.4,50.1,29.74,SSE,157,0.0,-999.0,99,-99.99,,,0.33,Acu-Link.com,2013-05-07 03:56:00,